Aérodrome :
LOGIN :

S'inscrire | Disclaimer

   EN    FR    IT 

 










Légende :    VFR   VFR Marginal   IFR   IFR Intensif   IFR Très Intensif
Visi : 
Plafond : 
>= 8 km
>= 3000ft
5 à 8 km
1000 à 3000 ft
1500m à 5 km
500 à 1000 ft
800 à 1500m
200 à 500 ft
< 800m
< 200 ft
Symboles :   Orages  Brouillard  Fortes neiges  Fortes précipitations  Vent > 20 kt
SIGMETs :   Divers  Orages  Givrage  Turbulence  Onde Orograph.  Cendres Volcan.







- Altitude de l'aérodrome : 22 ft
- Code IATA : TUN


DTTA - Tunis Carthage

DERNIER METAR :
  • 221730Z 31014KT 7000 SCT020 19/13 Q0999

METARs EXPIRÉS :
  • 221700Z 32015KT 6000 SCT020 21/13 Q0999
  • 221630Z 33017KT 6000 SCT020 21/13 Q0998
  • 221600Z 33018KT 6000 SCT020 22/14 Q0997
  • 221530Z 21016G26KT 190V310 5000 SCT020 30/01 Q0996
  • 221500Z 16014KT 130V190 5000 SCT020 30/07 Q0995

TAF TAF DTTA
Valide du 22 à 18h jusqu'au 23 à 18h UTC


221700Z 2218/2318 33018KT 6000 SCT020
PROB40
TEMPO 2216/2220 4000 -SHRA SCT020TCU
BECMG 2219/2221 22008KT
BECMG 2300/2202 16008KT
BECMG 2313/2315 06010KT 9999 SCT023
TEMPO 2314/2317 4000 TS SHRA FEW026CB
Pas de NOTAMs connus pour ce terrain.



MET'MAP, la Météo Aéronautique d'un coup d'oeil ! - Copyright ORBIFLY Décembre 2007 - Disclaimer

ORBIFLY MET'MAP TEAM :

Programmation & Développement : Alexandra Zaïnal
Conception & Développement : Baudouin d'Aumeries
Co-Programmation & Développement : Marc-Olivier Méhu
Soutien technique & logistique : Manuel Goepfert

Contact : metmap@orbifly.com




SOURCES & CREDITS :

   NOAA